Time;durP1;ratioP1;P1;durP2;ratioP2;P2;SDS_P1;SDS_P2;PMS_P1;PMS_P2;Temp;Humidity;BMP_temperature;BMP_pressure;BME280_temperature;BME280_humidity;BME280_pressure;Samples;Min_cycle;Max_cycle;Signal;HPM_P1;HPM_P2
2021/08/17 00:00:07;;;;;;;3.27;1.67;;;17.40;99.90;;;;;;4994707;28;20198;-79
2021/08/17 00:02:33;;;;;;;2.10;1.50;;;17.40;99.90;;;;;;4995569;28;20222;-79
2021/08/17 00:04:58;;;;;;;2.80;1.70;;;17.30;99.90;;;;;;4994325;28;20434;-79
2021/08/17 00:07:26;;;;;;;3.93;1.53;;;17.20;99.90;;;;;;4994677;28;20416;-80
2021/08/17 00:09:52;;;;;;;2.50;1.70;;;17.20;99.90;;;;;;4995724;28;20182;-79
2021/08/17 00:12:18;;;;;;;7.17;1.37;;;17.00;99.90;;;;;;4995149;28;20417;-79
2021/08/17 00:14:44;;;;;;;3.27;1.80;;;16.80;99.90;;;;;;4995287;28;20450;-81
2021/08/17 00:17:10;;;;;;;3.10;2.10;;;16.80;99.90;;;;;;4993907;28;20210;-81
2021/08/17 00:19:40;;;;;;;2.33;1.47;;;16.70;99.90;;;;;;4993576;28;20272;-79
2021/08/17 00:22:07;;;;;;;4.47;1.90;;;16.40;99.90;;;;;;4995755;28;20785;-81
2021/08/17 00:24:36;;;;;;;2.27;1.87;;;16.50;99.90;;;;;;4994700;28;20473;-79
2021/08/17 00:27:02;;;;;;;1.87;1.60;;;16.30;99.90;;;;;;4995206;28;20405;-80
2021/08/17 00:29:28;;;;;;;3.57;1.53;;;16.20;99.90;;;;;;4994769;28;20925;-79
2021/08/17 00:31:54;;;;;;;2.77;1.70;;;16.20;99.90;;;;;;4994503;28;20532;-80
2021/08/17 00:34:19;;;;;;;3.27;1.90;;;16.10;99.90;;;;;;4993855;28;20956;-78
2021/08/17 00:36:46;;;;;;;2.73;1.80;;;15.90;99.90;;;;;;4994394;28;20206;-79
2021/08/17 00:39:12;;;;;;;2.83;1.60;;;15.90;99.90;;;;;;4994784;28;20242;-80
2021/08/17 00:41:39;;;;;;;2.33;1.50;;;16.00;99.90;;;;;;4995348;28;20449;-80
2021/08/17 00:44:05;;;;;;;2.40;1.87;;;15.90;99.90;;;;;;4994938;28;20198;-80
2021/08/17 00:46:31;;;;;;;2.43;1.30;;;15.90;99.90;;;;;;4994670;28;20429;-79
2021/08/17 00:48:57;;;;;;;6.50;1.63;;;16.00;99.90;;;;;;4994508;28;20418;-78
2021/08/17 00:51:22;;;;;;;5.27;2.20;;;16.00;99.90;;;;;;4977485;28;20441;-80
2021/08/17 00:53:52;;;;;;;3.73;1.80;;;16.00;99.90;;;;;;4994774;28;20582;-79
2021/08/17 00:56:18;;;;;;;6.47;2.13;;;16.10;99.90;;;;;;4994108;28;20326;-80
2021/08/17 00:58:43;;;;;;;4.17;1.73;;;16.00;99.90;;;;;;4994728;28;20938;-80
2021/08/17 01:01:09;;;;;;;3.97;1.80;;;15.90;99.90;;;;;;4993342;28;20697;-78
2021/08/17 01:03:38;;;;;;;3.83;1.83;;;16.00;99.90;;;;;;4993995;28;20193;-79
2021/08/17 01:06:03;;;;;;;2.67;2.37;;;15.90;99.90;;;;;;4994929;28;20413;-79
2021/08/17 01:08:29;;;;;;;1.73;1.40;;;15.90;99.90;;;;;;4994985;28;20432;-79
2021/08/17 01:10:55;;;;;;;4.17;1.97;;;15.90;99.90;;;;;;4994833;28;20182;-81
2021/08/17 01:13:23;;;;;;;4.07;1.73;;;16.00;99.90;;;;;;4994835;28;20229;-80
2021/08/17 01:15:49;;;;;;;5.23;2.73;;;15.90;99.90;;;;;;4993897;28;20200;-80
2021/08/17 01:18:14;;;;;;;6.17;2.53;;;15.90;99.90;;;;;;4994198;28;20458;-80
2021/08/17 01:20:47;;;;;;;4.03;1.70;;;15.80;99.90;;;;;;4993899;28;20417;-80
2021/08/17 01:23:13;;;;;;;4.73;2.10;;;15.90;99.90;;;;;;4994319;28;20232;-80
2021/08/17 01:25:40;;;;;;;4.00;2.27;;;15.90;99.90;;;;;;4993864;28;20433;-79
2021/08/17 01:28:05;;;;;;;2.63;2.13;;;16.00;99.90;;;;;;4992743;28;20425;-81
2021/08/17 01:30:31;;;;;;;2.20;1.87;;;16.10;99.90;;;;;;4993447;28;20896;-79
2021/08/17 01:32:56;;;;;;;2.93;1.70;;;16.20;99.90;;;;;;4992111;28;20550;-79
2021/08/17 01:35:22;;;;;;;3.27;2.23;;;16.20;99.90;;;;;;4976116;28;20206;-80
2021/08/17 01:37:47;;;;;;;2.87;1.80;;;16.20;99.90;;;;;;4992989;28;20179;-81
2021/08/17 01:40:13;;;;;;;3.87;1.87;;;16.20;99.90;;;;;;4992811;28;20193;-79
2021/08/17 01:42:45;;;;;;;4.97;1.87;;;16.20;99.90;;;;;;4992703;28;20526;-79
2021/08/17 01:45:13;;;;;;;7.23;2.20;;;15.90;99.90;;;;;;4993021;28;20476;-79
2021/08/17 01:47:38;;;;;;;2.03;1.80;;;16.00;99.90;;;;;;4993305;28;20409;-80
2021/08/17 01:50:04;;;;;;;3.20;2.23;;;16.00;99.90;;;;;;4993244;28;20428;-80
2021/08/17 01:52:31;;;;;;;2.03;1.70;;;16.00;99.90;;;;;;4993974;28;20634;-81
2021/08/17 01:55:00;;;;;;;6.80;2.27;;;15.80;99.90;;;;;;4993388;28;20947;-80
2021/08/17 01:57:26;;;;;;;4.03;1.80;;;15.90;99.90;;;;;;4992499;28;20511;-80
2021/08/17 01:59:51;;;;;;;5.70;2.40;;;15.90;99.90;;;;;;4992352;28;20990;-80
2021/08/17 02:02:17;;;;;;;2.80;1.90;;;15.70;99.90;;;;;;4991462;28;20178;-79
2021/08/17 02:04:42;;;;;;;8.30;2.43;;;15.50;99.90;;;;;;4993112;28;20310;-80
2021/08/17 02:07:08;;;;;;;3.43;2.10;;;15.50;99.90;;;;;;4992218;28;20229;-78
2021/08/17 02:09:33;;;;;;;2.53;1.73;;;15.50;99.90;;;;;;4992089;28;20189;-78
2021/08/17 02:11:59;;;;;;;3.07;2.10;;;15.50;99.90;;;;;;4991903;28;20186;-80
2021/08/17 02:14:25;;;;;;;5.83;2.47;;;15.60;99.90;;;;;;4992386;28;20207;-79
2021/08/17 02:16:51;;;;;;;3.30;1.33;;;15.60;99.90;;;;;;4992629;28;20963;-79
2021/08/17 02:19:17;;;;;;;3.00;1.80;;;15.50;99.90;;;;;;4996371;28;20465;-81
2021/08/17 02:21:43;;;;;;;2.50;2.00;;;15.50;99.90;;;;;;4992712;28;20426;-79
2021/08/17 02:24:08;;;;;;;7.00;1.93;;;15.50;99.90;;;;;;4992176;28;20197;-80
2021/08/17 02:26:34;;;;;;;4.90;2.43;;;15.60;99.90;;;;;;4992681;28;20424;-79
2021/08/17 02:28:59;;;;;;;2.60;1.57;;;15.60;99.90;;;;;;4991711;28;20649;-80
2021/08/17 02:31:25;;;;;;;3.87;1.60;;;15.60;99.90;;;;;;4991331;28;20212;-80
2021/08/17 02:33:51;;;;;;;2.17;1.50;;;15.60;99.90;;;;;;4992383;28;20280;-78
2021/08/17 02:36:16;;;;;;;2.70;1.67;;;15.60;99.90;;;;;;4992578;28;20189;-79
2021/08/17 02:38:42;;;;;;;3.13;1.90;;;15.60;99.90;;;;;;4993296;28;20213;-79
2021/08/17 02:41:07;;;;;;;2.00;1.50;;;15.60;99.90;;;;;;4991801;28;20276;-79
2021/08/17 02:43:33;;;;;;;3.47;1.83;;;15.70;99.90;;;;;;4991122;28;20262;-79
2021/08/17 02:46:01;;;;;;;3.13;1.50;;;15.70;99.90;;;;;;4992389;28;20203;-79
2021/08/17 02:48:27;;;;;;;1.77;1.40;;;15.60;99.90;;;;;;4975544;28;20200;-80
2021/08/17 02:50:52;;;;;;;4.60;1.70;;;15.60;99.90;;;;;;4991824;28;20823;-78
2021/08/17 02:53:18;;;;;;;2.77;2.00;;;15.50;99.90;;;;;;4992333;28;20205;-80
2021/08/17 02:55:44;;;;;;;3.10;1.50;;;15.50;99.90;;;;;;4992062;28;20193;-80
2021/08/17 02:58:10;;;;;;;1.63;1.53;;;15.50;99.90;;;;;;4993879;28;20459;-79
2021/08/17 03:00:39;;;;;;;2.20;1.40;;;15.60;99.90;;;;;;4996356;28;20470;-79
2021/08/17 03:03:06;;;;;;;1.70;1.20;;;15.60;99.90;;;;;;4996128;28;20173;-79
2021/08/17 03:05:31;;;;;;;1.53;1.23;;;15.60;99.90;;;;;;4995811;28;20421;-80
2021/08/17 03:08:00;;;;;;;5.10;1.90;;;15.50;99.90;;;;;;4996075;28;20416;-80
2021/08/17 03:10:26;;;;;;;4.80;1.53;;;15.50;99.90;;;;;;4994446;28;20261;-79
2021/08/17 03:12:52;;;;;;;2.70;1.70;;;15.60;99.90;;;;;;4995577;28;20456;-80
2021/08/17 03:15:19;;;;;;;1.60;1.30;;;15.70;99.90;;;;;;4995748;28;20434;-80
2021/08/17 03:17:44;;;;;;;2.60;1.50;;;15.70;99.90;;;;;;4995978;28;20301;-80
2021/08/17 03:20:12;;;;;;;1.60;1.40;;;15.70;99.90;;;;;;4994622;28;20442;-81
2021/08/17 03:22:38;;;;;;;5.20;1.77;;;15.80;99.90;;;;;;4996071;28;20203;-80
2021/08/17 03:25:12;;;;;;;2.07;1.60;;;15.80;99.90;;;;;;4994188;28;20964;-80
2021/08/17 03:27:38;;;;;;;4.03;2.07;;;15.70;99.90;;;;;;4995161;28;20424;-79
2021/08/17 03:30:06;;;;;;;4.83;1.60;;;15.70;99.90;;;;;;4995486;28;20409;-80
2021/08/17 03:32:32;;;;;;;5.77;2.17;;;15.70;99.90;;;;;;4974584;28;20817;-78
2021/08/17 03:34:58;;;;;;;6.10;1.93;;;15.60;99.90;;;;;;4985288;28;20453;-79
2021/08/17 03:37:26;;;;;;;4.33;1.43;;;15.60;99.90;;;;;;4995066;28;20431;-79
2021/08/17 03:39:52;;;;;;;2.47;2.17;;;15.60;99.90;;;;;;4975431;28;20210;-79
2021/08/17 03:42:18;;;;;;;2.40;1.77;;;15.70;99.90;;;;;;4985712;28;20535;-79
2021/08/17 03:44:43;;;;;;;5.57;1.77;;;15.70;99.90;;;;;;4995100;28;20249;-80
2021/08/17 03:47:09;;;;;;;3.97;1.77;;;15.80;99.90;;;;;;4993712;28;20189;-80
2021/08/17 03:49:34;;;;;;;2.43;1.57;;;15.90;99.90;;;;;;4977777;28;20182;-79
2021/08/17 03:52:00;;;;;;;2.10;1.70;;;15.90;99.90;;;;;;4994791;28;20179;-79
2021/08/17 03:54:26;;;;;;;6.77;2.10;;;15.90;99.90;;;;;;4994471;28;20525;-81
2021/08/17 03:56:51;;;;;;;1.90;1.70;;;15.90;99.90;;;;;;4992764;28;20745;-80
2021/08/17 03:59:17;;;;;;;4.00;1.87;;;15.90;99.90;;;;;;4993152;28;20206;-78
2021/08/17 04:01:42;;;;;;;1.73;1.63;;;16.10;99.90;;;;;;4992969;28;20676;-79
2021/08/17 04:04:08;;;;;;;7.23;2.13;;;16.00;99.90;;;;;;4992740;28;20569;-79
2021/08/17 04:06:36;;;;;;;3.70;1.80;;;16.00;99.90;;;;;;4994524;28;20610;-80
2021/08/17 04:09:01;;;;;;;2.63;1.60;;;16.00;99.90;;;;;;4994563;28;20189;-80
2021/08/17 04:11:27;;;;;;;3.23;1.50;;;16.10;99.90;;;;;;4994688;28;21008;-79
2021/08/17 04:13:52;;;;;;;4.13;1.97;;;16.10;99.90;;;;;;4994507;28;20665;-80
2021/08/17 04:16:18;;;;;;;2.80;2.10;;;16.00;99.90;;;;;;4994426;28;20530;-80
2021/08/17 04:18:43;;;;;;;3.37;1.97;;;16.00;99.90;;;;;;4993183;28;20550;-81
2021/08/17 04:21:09;;;;;;;2.43;1.90;;;15.90;99.90;;;;;;4994692;28;20689;-80
2021/08/17 04:23:35;;;;;;;4.00;1.33;;;16.00;99.90;;;;;;4994500;28;20203;-80
2021/08/17 04:26:00;;;;;;;2.23;1.70;;;16.00;99.90;;;;;;4992889;28;20209;-79
2021/08/17 04:28:26;;;;;;;2.40;1.83;;;15.90;99.90;;;;;;4994562;28;20673;-82
2021/08/17 04:30:51;;;;;;;3.53;2.30;;;16.00;99.90;;;;;;4993847;28;20781;-78
2021/08/17 04:33:17;;;;;;;2.30;2.00;;;16.00;99.90;;;;;;4993945;28;20186;-80
2021/08/17 04:35:42;;;;;;;2.93;1.70;;;15.90;99.90;;;;;;4993887;28;20242;-80
2021/08/17 04:38:08;;;;;;;5.70;1.40;;;15.90;99.90;;;;;;4972909;28;20207;-80
2021/08/17 04:40:33;;;;;;;7.73;1.70;;;15.90;99.90;;;;;;4980348;28;20179;-80
2021/08/17 04:42:59;;;;;;;7.80;1.93;;;15.90;99.90;;;;;;4994311;28;20281;-81
2021/08/17 04:45:26;;;;;;;3.40;2.00;;;15.90;99.90;;;;;;4994318;28;20203;-80
2021/08/17 04:47:52;;;;;;;3.13;1.87;;;16.00;99.90;;;;;;4994905;28;20182;-80
2021/08/17 04:50:19;;;;;;;2.70;1.73;;;16.00;99.90;;;;;;4995546;28;20410;-80
2021/08/17 04:52:46;;;;;;;1.90;1.47;;;16.00;99.90;;;;;;4993453;28;20772;-79
2021/08/17 04:55:12;;;;;;;4.40;1.60;;;16.00;99.90;;;;;;4992370;28;20445;-80
2021/08/17 04:57:48;;;;;;;5.10;1.70;;;16.00;99.90;;;;;;4994484;28;20444;-79
2021/08/17 05:00:14;;;;;;;2.13;1.57;;;16.10;99.90;;;;;;4993592;28;20472;-80
2021/08/17 05:02:40;;;;;;;4.33;1.60;;;16.20;99.90;;;;;;4992111;28;20410;-80
2021/08/17 05:05:05;;;;;;;5.00;2.00;;;16.20;99.90;;;;;;4993430;28;20441;-80
2021/08/17 05:07:31;;;;;;;8.27;2.20;;;16.00;99.90;;;;;;4993801;28;20171;-79
2021/08/17 05:09:58;;;;;;;2.60;1.57;;;16.00;99.90;;;;;;4993236;28;20185;-78
2021/08/17 05:12:24;;;;;;;3.50;2.13;;;16.10;99.90;;;;;;4993834;28;20288;-78
2021/08/17 05:14:49;;;;;;;2.63;1.60;;;16.10;99.90;;;;;;4992923;28;20430;-80
2021/08/17 05:17:15;;;;;;;3.30;1.70;;;16.10;99.90;;;;;;4993716;28;20230;-79
2021/08/17 05:19:40;;;;;;;2.80;1.90;;;16.00;99.90;;;;;;4993826;28;20264;-78
2021/08/17 05:22:06;;;;;;;9.60;2.40;;;16.10;99.90;;;;;;4993296;28;20544;-80
2021/08/17 05:24:31;;;;;;;2.50;2.27;;;16.10;99.90;;;;;;4993164;28;20202;-80
2021/08/17 05:26:57;;;;;;;2.13;1.80;;;16.20;99.90;;;;;;4993901;28;20178;-79
2021/08/17 05:29:22;;;;;;;6.53;2.53;;;16.10;99.90;;;;;;4993624;28;20621;-79
2021/08/17 05:31:48;;;;;;;4.30;1.83;;;16.10;99.90;;;;;;4992360;28;20180;-80
2021/08/17 05:34:13;;;;;;;4.50;2.23;;;16.10;99.90;;;;;;4992909;28;20217;-79
2021/08/17 05:36:39;;;;;;;2.40;1.73;;;16.00;99.90;;;;;;4993446;28;20208;-80
2021/08/17 05:39:04;;;;;;;2.50;1.80;;;16.00;99.90;;;;;;4992826;28;20210;-80
2021/08/17 05:41:30;;;;;;;3.30;2.07;;;16.10;99.90;;;;;;4994066;28;20171;-80
2021/08/17 05:43:55;;;;;;;3.73;2.10;;;16.10;99.90;;;;;;4993046;28;20240;-79
2021/08/17 05:46:21;;;;;;;3.60;2.20;;;16.20;99.90;;;;;;4976602;28;20186;-80
2021/08/17 05:48:46;;;;;;;3.53;1.70;;;16.20;99.90;;;;;;4974017;28;20210;-79
2021/08/17 05:51:12;;;;;;;3.97;1.80;;;16.20;99.90;;;;;;4975879;28;20499;-81
2021/08/17 05:53:37;;;;;;;6.77;2.40;;;16.20;99.90;;;;;;4981980;28;20631;-79
2021/08/17 05:56:03;;;;;;;3.40;2.20;;;16.20;99.90;;;;;;4991837;28;20198;-79
2021/08/17 05:58:29;;;;;;;3.20;1.80;;;16.00;99.90;;;;;;4992016;28;20202;-80
2021/08/17 06:00:54;;;;;;;3.20;2.00;;;16.00;99.90;;;;;;4992800;28;20762;-81
2021/08/17 06:03:20;;;;;;;6.63;2.57;;;15.90;99.90;;;;;;4992949;28;20179;-80
2021/08/17 06:05:45;;;;;;;6.53;2.47;;;15.90;99.90;;;;;;4993329;28;20190;-80
2021/08/17 06:08:11;;;;;;;4.50;2.00;;;15.80;99.90;;;;;;4994220;28;20599;-81
2021/08/17 06:10:36;;;;;;;5.80;2.60;;;15.90;99.90;;;;;;4996724;28;20182;-81
2021/08/17 06:13:02;;;;;;;3.60;2.20;;;16.00;99.90;;;;;;5001255;28;20189;-81
2021/08/17 06:15:28;;;;;;;6.03;2.60;;;16.10;99.90;;;;;;5003726;28;20205;-81
2021/08/17 06:17:53;;;;;;;5.20;2.10;;;16.10;99.90;;;;;;5004479;28;20179;-80
2021/08/17 06:20:19;;;;;;;2.93;2.20;;;16.20;99.90;;;;;;4998147;28;20175;-79
2021/08/17 06:22:44;;;;;;;6.47;2.37;;;16.00;99.90;;;;;;4999502;28;20452;-80
2021/08/17 06:25:11;;;;;;;5.33;2.40;;;16.10;99.90;;;;;;4996944;28;20214;-81
2021/08/17 06:27:37;;;;;;;3.17;2.10;;;16.20;99.90;;;;;;5003475;28;20577;-79
2021/08/17 06:30:05;;;;;;;5.60;2.83;;;16.40;99.90;;;;;;4993933;28;20940;-79
2021/08/17 06:32:31;;;;;;;5.43;2.50;;;16.50;99.90;;;;;;4991475;28;20429;-78
2021/08/17 06:34:56;;;;;;;8.70;3.40;;;16.50;99.90;;;;;;4997818;28;20501;-80
2021/08/17 06:37:22;;;;;;;3.03;2.73;;;16.50;99.90;;;;;;4995782;28;20185;-79
2021/08/17 06:39:47;;;;;;;4.03;2.30;;;16.50;99.90;;;;;;4977372;28;20211;-78
2021/08/17 06:42:13;;;;;;;4.23;3.00;;;16.50;99.90;;;;;;4992772;28;20651;-79
2021/08/17 06:44:38;;;;;;;3.70;2.60;;;16.40;99.90;;;;;;4995514;28;20198;-79
2021/08/17 06:47:04;;;;;;;5.30;2.93;;;16.40;99.90;;;;;;4997600;28;20189;-78
2021/08/17 06:49:30;;;;;;;4.13;2.13;;;16.60;99.90;;;;;;4997737;28;20519;-79
2021/08/17 06:51:55;;;;;;;7.70;2.00;;;16.60;99.90;;;;;;4997532;28;20604;-80
2021/08/17 06:54:21;;;;;;;5.57;2.10;;;16.60;99.90;;;;;;4996036;28;20211;-79
2021/08/17 06:56:46;;;;;;;3.03;2.40;;;16.60;99.90;;;;;;4996283;28;20248;-77
2021/08/17 06:59:12;;;;;;;6.17;2.57;;;16.60;99.90;;;;;;4986148;28;20210;-80
2021/08/17 07:01:37;;;;;;;4.67;2.70;;;16.70;99.90;;;;;;4986018;28;20228;-79
2021/08/17 07:04:03;;;;;;;4.40;2.47;;;16.60;99.90;;;;;;4996670;28;20286;-80
2021/08/17 07:06:29;;;;;;;4.97;2.40;;;16.70;99.90;;;;;;4997747;28;20190;-78
2021/08/17 07:08:55;;;;;;;3.67;1.83;;;16.60;99.90;;;;;;4996347;28;20186;-80
2021/08/17 07:11:21;;;;;;;4.33;1.83;;;16.50;99.90;;;;;;4984050;28;20182;-79
2021/08/17 07:13:47;;;;;;;4.47;3.00;;;16.30;99.90;;;;;;4993458;28;20449;-80
2021/08/17 07:16:12;;;;;;;2.07;1.50;;;16.20;99.90;;;;;;4994427;28;20428;-79
2021/08/17 07:18:38;;;;;;;2.20;1.80;;;16.20;99.90;;;;;;4980871;28;20286;-78
2021/08/17 07:21:03;;;;;;;4.77;2.30;;;16.10;99.90;;;;;;4977249;28;20183;-79
2021/08/17 07:23:29;;;;;;;3.83;1.70;;;16.10;99.90;;;;;;4980738;28;20227;-80
2021/08/17 07:25:54;;;;;;;2.00;1.60;;;16.20;99.90;;;;;;4993704;28;20624;-81
2021/08/17 07:28:20;;;;;;;3.03;2.03;;;16.30;99.90;;;;;;4994521;28;20649;-79
2021/08/17 07:30:46;;;;;;;5.07;2.23;;;16.30;99.90;;;;;;4980978;28;20333;-79
2021/08/17 07:33:12;;;;;;;6.40;2.20;;;16.30;99.90;;;;;;4992154;28;20522;-79
2021/08/17 07:35:37;;;;;;;3.60;2.10;;;16.50;99.90;;;;;;4995385;28;20225;-79
2021/08/17 07:38:03;;;;;;;3.53;2.00;;;16.50;99.90;;;;;;4995810;28;20178;-79
2021/08/17 07:40:29;;;;;;;5.37;2.70;;;16.40;99.90;;;;;;4995729;28;20181;-80
2021/08/17 07:42:55;;;;;;;3.87;2.13;;;16.40;99.90;;;;;;4983609;28;20265;-80
2021/08/17 07:45:20;;;;;;;7.27;2.20;;;16.40;99.90;;;;;;4995612;28;20183;-80
2021/08/17 07:47:46;;;;;;;3.60;2.20;;;16.40;99.90;;;;;;4995726;28;20780;-79
2021/08/17 07:50:13;;;;;;;3.77;2.70;;;16.30;99.90;;;;;;4995414;28;20418;-79
2021/08/17 07:52:40;;;;;;;3.40;2.43;;;16.30;99.90;;;;;;4994469;28;20413;-79
2021/08/17 07:55:08;;;;;;;3.93;2.63;;;16.40;99.90;;;;;;4994196;28;20488;-79
2021/08/17 07:57:34;;;;;;;9.50;2.37;;;16.40;99.90;;;;;;4994201;28;20476;-78
2021/08/17 07:59:59;;;;;;;4.80;2.07;;;16.30;99.90;;;;;;4994043;28;20473;-80
2021/08/17 08:02:25;;;;;;;3.53;1.80;;;16.40;99.90;;;;;;4994243;28;20181;-79
2021/08/17 08:04:51;;;;;;;2.60;1.87;;;16.40;99.90;;;;;;4990452;28;20283;-79
2021/08/17 08:07:16;;;;;;;4.00;2.13;;;16.30;99.90;;;;;;4989403;28;20217;-79
2021/08/17 08:09:42;;;;;;;2.70;2.30;;;16.40;99.90;;;;;;4995789;28;20418;-80
2021/08/17 08:12:10;;;;;;;3.47;2.33;;;16.40;99.90;;;;;;4994315;28;20568;-80
2021/08/17 08:14:36;;;;;;;5.07;2.47;;;16.50;99.90;;;;;;4991990;28;20201;-79
2021/08/17 08:17:02;;;;;;;6.50;2.03;;;16.50;99.90;;;;;;4993411;28;20802;-80
2021/08/17 08:19:27;;;;;;;3.43;2.03;;;16.50;99.90;;;;;;4994842;28;20458;-79
2021/08/17 08:21:53;;;;;;;3.77;3.20;;;16.50;99.90;;;;;;4994571;28;20179;-81
2021/08/17 08:24:18;;;;;;;2.37;1.77;;;16.50;99.90;;;;;;4990916;28;20201;-78
2021/08/17 08:26:44;;;;;;;2.23;1.70;;;16.40;99.90;;;;;;4995210;28;20257;-80
2021/08/17 08:29:10;;;;;;;3.77;2.20;;;16.40;99.90;;;;;;4961874;28;20290;-81
2021/08/17 08:31:35;;;;;;;4.23;1.90;;;16.40;99.90;;;;;;4993576;28;20198;-78
2021/08/17 08:34:01;;;;;;;3.87;1.77;;;16.40;99.90;;;;;;4975941;28;20210;-79
2021/08/17 08:36:27;;;;;;;3.07;2.10;;;16.40;99.90;;;;;;4994026;28;20202;-79
2021/08/17 08:38:52;;;;;;;3.13;1.50;;;16.40;99.90;;;;;;4990402;28;20294;-79
2021/08/17 08:41:19;;;;;;;2.47;1.60;;;16.40;99.90;;;;;;4973556;28;20183;-79
2021/08/17 08:43:48;;;;;;;4.60;1.93;;;16.40;99.90;;;;;;4973891;28;20274;-79
2021/08/17 08:46:19;;;;;;;2.90;1.93;;;16.40;99.90;;;;;;4974225;28;20965;-79
2021/08/17 08:48:48;;;;;;;8.83;1.87;;;16.40;99.90;;;;;;4987905;28;20444;-78
2021/08/17 08:51:15;;;;;;;2.10;1.80;;;16.40;99.90;;;;;;4993389;28;20928;-77
2021/08/17 08:53:41;;;;;;;2.97;1.37;;;16.30;99.90;;;;;;4992470;28;20533;-78
2021/08/17 08:56:07;;;;;;;1.63;1.50;;;16.50;99.90;;;;;;4991454;28;20516;-80
2021/08/17 08:58:32;;;;;;;3.83;2.27;;;16.50;99.90;;;;;;4979661;28;20222;-79
2021/08/17 09:00:58;;;;;;;2.33;1.53;;;16.60;99.90;;;;;;4974074;28;21062;-78
2021/08/17 09:03:47;;;;;;;4.00;1.97;;;16.50;99.90;;;;;;4972505;28;20267;-79
2021/08/17 09:06:20;;;;;;;4.70;1.83;;;16.60;99.90;;;;;;4987965;28;20265;-78
2021/08/17 09:08:46;;;;;;;2.40;1.77;;;16.60;99.90;;;;;;4995315;28;20418;-79
2021/08/17 09:11:20;;;;;;;3.30;1.90;;;16.60;99.90;;;;;;4989223;28;20426;-80
2021/08/17 09:13:47;;;;;;;1.70;1.30;;;16.30;99.90;;;;;;4988495;28;20528;-79
2021/08/17 09:16:32;;;;;;;2.10;1.73;;;16.30;99.90;;;;;;4996172;28;20488;-80
2021/08/17 09:18:58;;;;;;;2.40;1.87;;;16.40;99.90;;;;;;4976205;28;20497;-78
2021/08/17 09:21:38;;;;;;;2.73;1.90;;;16.40;99.90;;;;;;4975898;28;20414;-78
2021/08/17 09:24:24;;;;;;;3.40;2.00;;;16.40;99.90;;;;;;4973746;28;20464;-80
2021/08/17 09:26:57;;;;;;;5.23;1.83;;;16.70;99.90;;;;;;4973118;28;20440;-79
2021/08/17 09:29:32;;;;;;;2.43;2.23;;;16.60;99.90;;;;;;4974999;28;20510;-80
2021/08/17 09:32:00;;;;;;;3.93;1.60;;;16.60;99.90;;;;;;4988871;28;20417;-79
2021/08/17 09:34:31;;;;;;;2.20;1.70;;;16.60;99.90;;;;;;4993881;28;20421;-80
2021/08/17 09:36:57;;;;;;;3.73;1.70;;;16.60;99.90;;;;;;4997495;28;20406;-81
2021/08/17 09:39:32;;;;;;;4.63;2.37;;;16.70;99.90;;;;;;4996317;28;20488;-81
2021/08/17 09:42:13;;;;;;;2.87;2.57;;;16.70;99.90;;;;;;4980640;28;20178;-81
2021/08/17 09:44:39;;;;;;;4.57;2.50;;;16.70;99.90;;;;;;4995393;28;20438;-80
2021/08/17 09:47:05;;;;;;;4.50;2.40;;;16.70;99.90;;;;;;4997165;28;20410;-80
2021/08/17 09:49:31;;;;;;;3.30;2.47;;;16.70;99.90;;;;;;4995156;28;20430;-81
2021/08/17 09:52:05;;;;;;;4.47;2.70;;;16.60;99.90;;;;;;4996283;28;20778;-80
2021/08/17 09:54:31;;;;;;;3.90;2.30;;;16.60;99.90;;;;;;4994566;28;20254;-80
2021/08/17 09:57:02;;;;;;;6.70;2.37;;;16.70;99.90;;;;;;4979188;28;20453;-81
2021/08/17 09:59:30;;;;;;;3.50;2.00;;;16.60;99.90;;;;;;4995828;28;20213;-81
2021/08/17 10:01:57;;;;;;;5.80;2.60;;;16.60;99.90;;;;;;4997669;28;20445;-83
2021/08/17 10:04:23;;;;;;;9.20;2.30;;;16.60;99.90;;;;;;4994830;28;20442;-80
2021/08/17 10:06:53;;;;;;;4.87;2.33;;;16.70;99.90;;;;;;4991746;28;20456;-81
2021/08/17 10:09:19;;;;;;;3.40;2.20;;;16.60;99.90;;;;;;5001450;28;20744;-79
2021/08/17 10:11:45;;;;;;;5.50;2.60;;;16.70;99.90;;;;;;4999721;28;20406;-81
2021/08/17 10:14:12;;;;;;;2.47;2.07;;;16.80;99.90;;;;;;4997863;28;20488;-81
2021/08/17 10:16:42;;;;;;;3.47;2.40;;;16.80;99.90;;;;;;4982822;28;20422;-81
2021/08/17 10:19:08;;;;;;;5.73;2.90;;;16.80;99.90;;;;;;4999117;28;20453;-81
2021/08/17 10:21:37;;;;;;;3.17;2.10;;;16.90;99.90;;;;;;4998685;28;20457;-80
2021/08/17 10:24:23;;;;;;;3.27;2.40;;;17.00;99.90;;;;;;4998840;28;20442;-80
2021/08/17 10:26:49;;;;;;;6.30;2.20;;;17.20;99.90;;;;;;5001191;28;20784;-80
2021/08/17 10:29:27;;;;;;;5.50;2.60;;;17.20;99.90;;;;;;5000848;28;20409;-80
2021/08/17 10:31:53;;;;;;;3.20;2.30;;;17.30;99.90;;;;;;5000543;28;20461;-81
2021/08/17 10:34:34;;;;;;;2.90;1.67;;;17.40;99.90;;;;;;5000204;28;20434;-80
2021/08/17 10:37:18;;;;;;;4.80;2.83;;;17.70;99.90;;;;;;5000354;28;20776;-81
2021/08/17 10:39:46;;;;;;;4.33;2.63;;;17.70;99.90;;;;;;5001659;28;20455;-80
2021/08/17 10:42:49;;;;;;;5.40;2.37;;;17.60;99.90;;;;;;4983565;28;20478;-80
2021/08/17 10:45:27;;;;;;;4.00;1.70;;;17.60;99.90;;;;;;4998681;28;20438;-80
2021/08/17 10:47:53;;;;;;;7.87;2.27;;;17.70;99.90;;;;;;4983227;28;20613;-80
2021/08/17 10:50:32;;;;;;;4.40;2.50;;;17.70;99.90;;;;;;4979876;28;20486;-81
2021/08/17 10:52:58;;;;;;;4.97;1.67;;;17.60;99.90;;;;;;4970061;28;20277;-80
2021/08/17 10:55:27;;;;;;;6.00;2.43;;;17.40;99.90;;;;;;4971704;28;20506;-80
2021/08/17 10:58:00;;;;;;;2.57;1.83;;;17.50;99.90;;;;;;4991299;28;20189;-80
2021/08/17 11:00:56;;;;;;;3.07;2.10;;;17.60;99.90;;;;;;4982185;28;20466;-80
2021/08/17 11:03:43;;;;;;;2.83;1.70;;;17.40;99.90;;;;;;4975829;28;20561;-78
2021/08/17 11:06:10;;;;;;;3.20;1.70;;;17.10;99.90;;;;;;4998130;28;20434;-81
2021/08/17 11:08:40;;;;;;;3.47;1.90;;;17.10;99.90;;;;;;4993521;28;20438;-80
2021/08/17 11:11:18;;;;;;;2.90;1.97;;;17.10;99.90;;;;;;4980073;28;20453;-82
2021/08/17 11:14:06;;;;;;;3.87;1.50;;;17.30;99.90;;;;;;4962713;28;20502;-80
2021/08/17 11:16:32;;;;;;;3.03;1.30;;;17.50;99.90;;;;;;4996992;28;20976;-80
2021/08/17 11:19:01;;;;;;;2.47;1.70;;;17.60;99.90;;;;;;4996239;28;20461;-80
2021/08/17 11:21:39;;;;;;;1.97;1.67;;;17.70;99.90;;;;;;4985784;28;20861;-80
2021/08/17 11:24:32;;;;;;;4.03;1.83;;;17.50;99.90;;;;;;4984762;28;20616;-81
2021/08/17 11:27:18;;;;;;;4.73;1.50;;;17.30;99.90;;;;;;4982254;28;20438;-80
2021/08/17 11:29:58;;;;;;;2.10;1.60;;;17.20;99.90;;;;;;4984043;28;20442;-81
2021/08/17 11:32:25;;;;;;;5.30;2.30;;;16.90;99.90;;;;;;4996315;28;20429;-82
2021/08/17 11:34:50;;;;;;;3.70;2.43;;;16.70;99.90;;;;;;4998001;28;20477;-80
2021/08/17 11:37:17;;;;;;;6.33;1.97;;;16.60;99.90;;;;;;5003158;28;20422;-80
2021/08/17 11:39:59;;;;;;;10.30;3.00;;;16.60;99.90;;;;;;5010400;28;20221;-78
2021/08/17 11:42:33;;;;;;;6.50;2.13;;;16.30;99.90;;;;;;4980529;28;21001;-80
2021/08/17 11:45:15;;;;;;;3.50;1.97;;;16.20;99.90;;;;;;4978094;28;20449;-79
2021/08/17 11:47:42;;;;;;;4.80;2.00;;;16.30;99.90;;;;;;4997620;28;20812;-80
2021/08/17 11:50:10;;;;;;;2.23;1.77;;;16.40;99.90;;;;;;4997684;28;20499;-80
2021/08/17 11:52:41;;;;;;;6.67;2.50;;;16.70;99.90;;;;;;4997060;28;20425;-81
2021/08/17 11:55:11;;;;;;;4.73;2.03;;;17.00;99.90;;;;;;4990830;28;20499;-81
2021/08/17 11:57:50;;;;;;;2.97;2.53;;;17.00;99.90;;;;;;4998679;28;20426;-81
2021/08/17 12:00:18;;;;;;;7.60;3.10;;;17.10;99.90;;;;;;4998562;28;20552;-81
2021/08/17 12:02:45;;;;;;;5.67;2.37;;;17.00;99.90;;;;;;4998768;28;20422;-80
2021/08/17 12:05:13;;;;;;;3.03;2.17;;;16.90;99.90;;;;;;4990491;28;20730;-80
2021/08/17 12:07:39;;;;;;;4.47;2.60;;;17.10;99.90;;;;;;4997868;28;20437;-81
2021/08/17 12:10:10;;;;;;;3.60;2.33;;;17.20;99.90;;;;;;4997624;28;20428;-80
2021/08/17 12:13:11;;;;;;;4.47;2.60;;;17.40;99.90;;;;;;4998582;28;20433;-81
2021/08/17 12:15:37;;;;;;;5.30;2.27;;;17.50;99.90;;;;;;4999398;28;20947;-81
2021/08/17 12:18:11;;;;;;;3.00;1.93;;;17.60;99.90;;;;;;4998182;28;20489;-81
2021/08/17 12:20:58;;;;;;;4.80;2.33;;;17.60;99.90;;;;;;4998106;28;20518;-80
2021/08/17 12:23:33;;;;;;;6.43;2.60;;;17.70;99.90;;;;;;4997111;28;20414;-80
2021/08/17 12:26:18;;;;;;;7.40;2.07;;;17.80;99.90;;;;;;4988754;28;20530;-80
2021/08/17 12:28:52;;;;;;;3.07;2.10;;;17.80;99.90;;;;;;4996352;28;20418;-81
2021/08/17 12:31:32;;;;;;;2.23;2.00;;;17.70;99.90;;;;;;4995147;28;20431;-82
2021/08/17 12:33:59;;;;;;;3.83;2.47;;;17.70;99.90;;;;;;4993837;28;20806;-81
2021/08/17 12:36:37;;;;;;;5.77;2.40;;;17.70;99.90;;;;;;4994127;28;20457;-81
2021/08/17 12:39:10;;;;;;;5.87;2.40;;;17.80;99.90;;;;;;4995643;28;20454;-80
2021/08/17 12:41:38;;;;;;;3.70;2.60;;;17.60;99.90;;;;;;4998580;28;20429;-79
2021/08/17 12:44:14;;;;;;;5.67;2.03;;;17.60;99.90;;;;;;4997353;28;20429;-81
2021/08/17 12:47:02;;;;;;;4.70;2.40;;;17.60;99.90;;;;;;4998279;28;20431;-81
2021/08/17 12:49:58;;;;;;;5.40;2.33;;;17.70;99.90;;;;;;4996200;28;20783;-82
2021/08/17 12:52:28;;;;;;;4.57;2.37;;;17.80;99.90;;;;;;4999738;28;20412;-82